McCurtain, Oklahoma
Current Conditions -  °F | °C
As of 5:55 AM on Friday 19 Dec 2014 (Local Time) from KGZL Reporting Station
Haze Haze  
Wind Chill: 41°   Ceiling: 1300
Heat Index: 41°   Visibility: 5mi
Dew Point: 37°   Wind: 3mph
Humidity: 87%   Direction: 90°E
Pressure: 30.22"   Gusts: NA
Location:  35.15°N, 94.97°W
Report Text: KGZL 191155Z AUTO 09003KT 5SM BR FEW006 OVC013 05/03 A3022 RMK AO2
Loading
Personal Weather Stations






























Interactive Weather Map New forecast layout! Learn more

10-Day Weather Forecast

Advertisements
Track Severe Weather on mobile